ENTC/TOS METAR and TAF weather

Enter ICAO airport designator
Station Type Date Time Source
ENTC METAR 2020/07/05 16:20 UTC NOAA

ENTC 051620Z 05007KT 9999 FEW031 BKN047 10/04 Q0998 NOSIG RMK WIND 2600FT 01004KT


Station Type Date Time Source
ENTC Decoded METAR 2020/07/05 16:20 UTC NOAA

Tromso / Langnes, Norway (ENTC) 69-41N 018-55E 10M
Jul 05, 2020 - 12:20 PM EDT / 2020.07.05 1620 UTC
Wind: from the NE (050 degrees) at 8 MPH (7 KT):0
Visibility: greater than 7 mile(s):0
Sky conditions: mostly cloudy
Temperature: 50 F (10 C)
Dew Point: 39 F (4 C)
Relative Humidity: 66%
Pressure (altimeter): 29.47 in. Hg (0998 hPa)
ob: ENTC 051620Z 05007KT 9999 FEW031 BKN047 10/04 Q0998 NOSIG RMK WIND 2600FT 01004KT
cycle: 16

Station Type Date Time Source
ENTC TAF 2020/07/05 12:57 UTC NOAA

TAF ENTC 051100Z 0512/0612 VRB05KT 9999 FEW020 BKN030
TEMPO 0522/0612 02010KT

Example: see airport list